Latest Weather Observations for Strathalbyn

IDS60901

Issued at 8:05 pm CDT Wednesday 22 October 2014 (issued every 10 minutes, with the page automatically refreshed every 10 minutes)

About weather observations | Map of Adelaide area stations | Latest observations for Adelaide area | Other Formats
Station Details ID: 024580 Name: STRATHALBYN RACECOURSE Lat: -35.28 Lon: 138.89 Height: 58.0 m
Data from the previous 72 hours. | See also: Recent months at Strathalbyn
Date/Time
CDT
Tmp

°C
App
Tmp
°C
Dew
Point
°C
Rel
Hum
%
Delta-T

°C
Wind Press
QNH
hPa
Press
MSL
hPa
Rain
since
9 am
mm
Dir
 
Spd
km/h
Gust
km/h
Spd
kts
Gust
kts
22/08:00pm 15.1 11.1 11.9 81 1.7 SSW 24 35 13 19 1019.3 - 0.0
22/07:30pm 15.3 11.7 11.9 80 1.8 SSW 22 32 12 17 1019.0 - 0.0
22/07:00pm 15.6 11.7 12.0 79 2.0 SSW 24 33 13 18 1018.8 - 0.0
22/06:30pm 15.7 11.0 11.9 78 2.1 SSW 28 37 15 20 1018.5 - 0.0
22/06:00pm 16.1 11.0 11.9 76 2.3 SSW 30 39 16 21 1018.3 1018.3 0.0
22/05:30pm 16.8 11.8 12.1 74 2.6 SSW 30 39 16 21 1018.3 - 0.0
22/05:00pm 16.9 11.8 12.0 73 2.7 SSW 30 41 16 22 1018.1 - 0.0
22/04:30pm 18.2 13.1 12.0 67 3.4 SSW 30 43 16 23 1018.1 - 0.0
22/04:00pm 18.3 12.9 12.3 68 3.3 SSW 32 46 17 25 1018.2 - 0.0
22/03:30pm 19.1 13.7 12.1 64 3.9 SSW 32 46 17 25 1018.0 - 0.0
22/03:00pm 20.2 14.8 12.2 60 4.5 SSW 32 43 17 23 1017.9 1017.9 0.0
22/02:30pm 19.6 14.0 11.6 60 4.4 SSW 32 43 17 23 1018.1 - 0.0
22/02:00pm 20.7 14.7 12.1 58 4.8 SSW 35 48 19 26 1018.0 - 0.0
22/01:30pm 21.0 14.8 12.7 59 4.7 SSW 37 48 20 26 1018.0 - 0.0
22/01:00pm 21.4 15.4 12.0 55 5.3 SSW 35 46 19 25 1017.9 - 0.0
22/12:30pm 22.2 16.0 11.3 50 6.1 SSW 35 44 19 24 1017.7 - 0.0
22/12:00pm 22.8 18.2 10.9 47 6.6 SSW 26 35 14 19 1017.6 1017.6 0.0
22/11:30am 22.3 17.6 10.8 48 6.4 SSW 26 32 14 17 1017.5 - 0.0
22/11:00am 22.6 18.3 10.7 47 6.6 S 24 32 13 17 1017.5 - 0.0
22/10:30am 22.1 17.6 11.5 51 5.9 S 26 35 14 19 1017.8 - 0.0
22/10:00am 21.7 16.7 11.1 51 5.9 SSW 28 39 15 21 1017.8 - 0.0
22/09:30am 21.4 16.8 10.9 51 5.8 SSW 26 35 14 19 1017.7 - 0.0
22/09:00am 21.5 17.1 10.3 49 6.1 SSW 24 30 13 16 1017.6 1017.6 0.0
22/08:30am 20.7 16.3 9.0 47 6.2 SSW 22 32 12 17 1017.1 - 0.0
22/08:00am 19.1 15.9 10.1 56 4.8 SSW 17 26 9 14 1016.9 - 0.0
22/07:30am 18.1 15.6 8.4 53 5.0 SSW 11 15 6 8 1016.6 - 0.0
22/07:00am 16.5 12.8 6.3 51 5.0 S 15 22 8 12 1016.4 - 0.0
22/06:30am 16.8 14.2 6.0 49 5.3 NNW 9 13 5 7 1015.3 - 0.0
22/06:00am 16.9 12.8 6.1 49 5.3 NNW 17 20 9 11 1015.3 1015.3 0.0
22/05:30am 16.9 13.4 5.5 47 5.5 NW 13 15 7 8 1015.3 - 0.0
22/05:00am 16.9 13.1 5.8 48 5.4 NW 15 17 8 9 1015.2 - 0.0
22/04:30am 16.9 13.2 6.4 50 5.2 NW 15 17 8 9 1015.1 - 0.0
22/04:00am 17.1 14.2 6.6 50 5.2 W 11 13 6 7 1015.2 - 0.0
22/03:30am 17.8 15.4 7.0 49 5.4 W 9 11 5 6 1015.7 - 0.0
22/03:00am 18.9 17.0 7.7 48 5.7 SW 7 13 4 7 1016.2 1016.2 0.0
22/02:30am 19.9 16.3 8.3 47 6.0 SSW 17 24 9 13 1016.4 - 0.0
22/02:00am 21.6 16.8 7.4 40 7.3 S 22 33 12 18 1016.7 - 0.0
22/01:47am 22.4 16.5 7.4 38 7.8 SSW 28 37 15 20 1016.4 - 0.0
22/01:30am 22.1 19.4 3.7 30 8.9 NNW 7 13 4 7 1015.9 - 0.0
22/01:00am 24.7 20.7 2.8 24 10.6 N 13 17 7 9 1015.9 - 0.0
22/12:30am 27.6 23.1 1.9 19 12.5 N 15 20 8 11 1016.1 - 0.0
22/12:00am 30.4 24.2 -0.1 14 14.6 NE 22 30 12 16 1016.4 1016.4 0.0
 
Date/Time
CDT
Tmp

°C
App
Tmp
°C
Dew
Point
°C
Rel
Hum
%
Delta-T

°C
Wind Press
QNH
hPa
Press
MSL
hPa
Rain
since
9 am
mm
Dir
 
Spd
km/h
Gust
km/h
Spd
kts
Gust
kts
21/11:30pm 31.6 25.8 -0.1 13 15.3 N 20 30 11 16 1016.5 - 0.0
21/11:00pm 32.3 26.2 0.4 13 15.6 N 22 35 12 19 1016.9 - 0.0
21/10:59pm 31.7 25.7 1.0 14 15.1 N 22 35 12 19 1016.9 - 0.0
21/10:30pm 25.2 20.8 4.9 27 10.3 NW 17 20 9 11 1017.2 - 0.0
21/10:00pm 24.1 20.6 5.5 30 9.4 NNW 13 17 7 9 1017.1 - 0.0
21/09:30pm 25.1 20.2 4.3 26 10.4 NW 19 20 10 11 1017.0 - 0.0
21/09:00pm 24.2 20.1 4.6 28 9.8 N 15 17 8 9 1016.7 1016.7 0.0
21/08:30pm 25.5 22.4 3.5 24 10.9 ENE 9 15 5 8 1016.9 - 0.0
21/08:00pm 26.5 23.4 3.7 23 11.4 E 9 11 5 6 1016.8 - 0.0
21/07:30pm 29.1 25.8 2.4 18 13.2 E 9 15 5 8 1016.6 - 0.0
21/07:00pm 31.2 26.6 1.5 15 14.7 E 15 19 8 10 1016.5 - 0.0
21/06:30pm 32.2 28.3 1.3 14 15.3 E 11 17 6 9 1016.5 - 0.0
21/06:00pm 33.2 29.1 0.0 12 16.2 WNW 11 19 6 10 1016.3 1016.3 0.0
21/05:30pm 33.9 29.1 0.5 12 16.5 W 15 20 8 11 1016.3 - 0.0
21/05:00pm 34.5 29.6 -0.2 11 17.1 WNW 15 20 8 11 1016.2 - 0.0
21/04:30pm 35.5 30.4 0.6 11 17.5 W 17 26 9 14 1016.2 - 0.0
21/04:00pm 35.5 31.3 1.8 12 17.2 N 13 20 7 11 1016.4 - 0.0
21/03:30pm 35.7 30.6 0.7 11 17.6 NNW 17 32 9 17 1016.5 - 0.0
21/03:00pm 36.2 31.9 1.1 11 17.8 NNW 13 24 7 13 1016.7 1016.7 0.0
21/02:30pm 36.2 31.5 1.1 11 17.8 N 15 22 8 12 1017.2 - 0.0
21/02:00pm 36.1 30.5 1.0 11 17.8 N 20 28 11 15 1017.7 - 0.0
21/01:30pm 35.7 30.0 0.7 11 17.6 N 20 30 11 16 1018.1 - 0.0
21/01:00pm 35.2 29.1 0.3 11 17.4 NNE 22 32 12 17 1018.4 - 0.0
21/12:30pm 34.7 27.9 1.1 12 16.9 NNE 26 39 14 21 1018.8 - 0.0
21/12:00pm 34.7 27.6 1.1 12 16.9 NNE 28 39 15 21 1019.2 1019.2 0.0
21/11:30am 33.2 25.8 2.1 14 15.7 NNE 30 37 16 20 1019.6 - 0.0
21/11:00am 31.7 25.2 2.8 16 14.7 NNE 26 33 14 18 1019.9 - 0.0
21/10:30am 29.1 23.4 3.1 19 13.0 ENE 22 30 12 16 1020.3 - 0.0
21/10:00am 26.6 20.1 2.5 21 11.8 NE 26 35 14 19 1020.4 - 0.0
21/09:30am 24.6 18.1 2.7 24 10.6 NE 26 32 14 17 1020.5 - 0.0
21/09:00am 22.1 16.7 2.2 27 9.3 NE 20 28 11 15 1021.0 1020.9 0.0
21/08:30am 19.8 15.1 3.1 33 7.9 ENE 17 20 9 11 1021.1 - 0.0
21/08:00am 17.5 14.1 3.8 40 6.4 NNE 11 15 6 8 1021.0 - 0.0
21/07:30am 14.4 12.0 5.2 54 4.3 N 7 7 4 4 1021.0 - 0.0
21/07:00am 12.1 9.6 4.8 61 3.3 N 7 9 4 5 1020.9 - 0.0
21/06:30am 13.1 10.1 4.0 54 4.1 N 9 13 5 7 1020.6 - 0.0
21/06:00am 13.2 9.8 4.1 54 4.1 NNE 11 13 6 7 1020.3 1020.3 0.0
21/05:30am 13.1 10.1 4.0 54 4.1 NNE 9 11 5 6 1020.2 - 0.0
21/05:00am 15.5 12.9 3.3 44 5.6 NNE 6 7 3 4 1020.1 - 0.0
21/04:30am 15.7 12.4 4.7 48 5.2 NNE 11 13 6 7 1020.1 - 0.0
21/04:00am 15.3 11.9 5.8 53 4.6 N 13 15 7 8 1020.3 - 0.0
21/03:30am 15.3 11.7 6.6 56 4.2 N 15 15 8 8 1020.4 - 0.0
21/03:00am 14.5 11.4 7.1 61 3.6 N 13 13 7 7 1020.6 1020.6 0.0
21/02:30am 14.9 11.5 7.5 61 3.7 N 15 17 8 9 1020.9 - 0.0
21/02:00am 14.1 11.5 7.9 66 3.1 N 11 13 6 7 1021.1 - 0.0
21/01:30am 14.4 12.8 8.6 68 2.9 NNW 7 9 4 5 1021.5 - 0.0
21/01:00am 14.6 12.5 8.3 66 3.2 NNW 9 13 5 7 1021.7 - 0.0
21/12:30am 14.3 12.3 8.5 68 2.9 NNW 9 13 5 7 1021.9 - 0.0
21/12:00am 14.1 12.1 8.5 69 2.8 NNW 9 11 5 6 1022.3 1022.2 0.0
 
Date/Time
CDT
Tmp

°C
App
Tmp
°C
Dew
Point
°C
Rel
Hum
%
Delta-T

°C
Wind Press
QNH
hPa
Press
MSL
hPa
Rain
since
9 am
mm
Dir
 
Spd
km/h
Gust
km/h
Spd
kts
Gust
kts
20/11:30pm 13.9 11.5 8.7 71 2.6 NNW 11 15 6 8 1022.7 - 0.0
20/11:00pm 13.6 12.1 9.1 74 2.3 SW 7 13 4 7 1022.8 - 0.0
20/10:30pm 13.5 12.6 9.2 75 2.2 SW 4 9 2 5 1022.9 - 0.0
20/10:00pm 13.7 13.5 9.0 73 2.4 CALM 0 0 0 0 1023.1 - 0.0
20/09:30pm 13.9 12.5 8.7 71 2.6 SW 6 9 3 5 1022.9 - 0.0
20/09:00pm 14.9 13.4 9.3 69 2.9 SW 7 9 4 5 1022.9 1022.8 0.0
20/08:30pm 15.8 14.7 10.1 69 3.0 SW 6 7 3 4 1022.7 - 0.0
20/08:00pm 17.2 16.1 10.8 66 3.4 SW 7 7 4 4 1022.5 - 0.0
20/07:30pm 18.4 16.9 10.7 61 4.2 SW 9 13 5 7 1022.2 - 0.0
20/07:00pm 19.6 17.7 10.6 56 4.9 SW 11 15 6 8 1022.0 - 0.0
20/06:30pm 20.4 18.1 10.5 53 5.4 SW 13 17 7 9 1021.9 - 0.0
20/06:00pm 21.1 18.2 10.9 52 5.6 SSW 17 22 9 12 1021.8 1021.7 0.0
20/05:30pm 22.0 18.1 10.8 49 6.2 SSW 22 28 12 15 1021.9 - 0.0
20/05:00pm 25.7 21.1 8.2 33 9.4 S 22 28 12 15 1021.7 - 0.0
20/04:30pm 27.0 22.9 6.4 27 10.8 SE 17 22 9 12 1021.6 - 0.0
20/04:00pm 26.5 23.1 7.5 30 10.1 ESE 15 20 8 11 1021.8 - 0.0
20/03:30pm 27.2 23.8 7.6 29 10.5 ESE 15 26 8 14 1022.1 - 0.0
20/03:00pm 26.8 22.7 6.2 27 10.7 E 17 28 9 15 1022.5 1022.4 0.0
20/02:30pm 26.7 22.8 7.2 29 10.4 E 17 22 9 12 1022.9 - 0.0
20/02:00pm 25.7 22.0 7.8 32 9.6 E 17 24 9 13 1023.6 - 0.0
20/01:30pm 24.3 20.8 7.4 34 8.9 ENE 15 20 8 11 1024.0 - 0.0
20/01:00pm 22.8 18.8 8.1 39 7.8 E 19 28 10 15 1024.3 - 0.0
20/12:30pm 21.5 18.4 8.7 44 6.8 ENE 15 22 8 12 1024.8 - 0.0
20/12:00pm 20.4 16.3 8.7 47 6.1 ENE 20 28 11 15 1025.2 1025.1 0.0
20/11:30am 19.6 15.8 8.9 50 5.6 ENE 19 32 10 17 1025.6 - 0.0
20/11:00am 18.5 15.1 9.3 55 4.8 ENE 17 26 9 14 1026.2 - 0.0
20/10:30am 17.3 13.4 8.7 57 4.4 ENE 19 24 10 13 1026.5 - 0.0
20/10:00am 16.2 12.1 8.7 61 3.8 ENE 20 28 11 15 1026.7 - 0.0
20/09:30am 15.0 11.4 8.5 65 3.3 ENE 17 26 9 14 1027.0 - 0.0
20/09:00am 14.2 10.7 8.6 69 2.8 ENE 17 22 9 12 1027.3 1027.2 0.0
20/08:30am 13.4 10.3 8.9 74 2.3 E 15 20 8 11 1027.3 - 0.0
20/08:00am 12.6 10.8 9.4 81 1.6 S 9 17 5 9 1027.2 - 0.0
20/07:30am 11.2 11.0 9.1 87 1.0 CALM 0 0 0 0 1026.9 - 0.0
20/07:00am 10.1 9.0 8.4 89 0.8 S 4 6 2 3 1026.5 - 0.0
20/06:30am 10.4 8.8 8.7 89 0.8 S 7 9 4 5 1026.4 - 0.0
20/06:00am 10.1 9.4 8.4 89 0.8 SSW 2 7 1 4 1026.1 1026.0 0.0
20/05:30am 9.5 8.9 7.6 88 0.9 CALM 0 0 0 0 1026.0 - 0.0
20/05:00am 9.6 9.1 7.7 88 0.9 CALM 0 0 0 0 1025.8 - 0.0
20/04:30am 9.6 9.0 7.5 87 1.0 CALM 0 6 0 3 1025.5 - 0.0
20/04:00am 10.1 9.6 7.9 86 1.1 CALM 0 0 0 0 1025.4 - 0.0
20/03:30am 10.7 10.3 8.3 85 1.2 CALM 0 0 0 0 1025.5 - 0.0
20/03:00am 10.9 9.8 8.3 84 1.3 SSW 4 6 2 3 1025.6 1025.5 0.0
20/02:30am 11.4 9.4 8.8 84 1.3 SSW 9 11 5 6 1025.7 - 0.0
20/02:00am 11.9 10.6 9.1 83 1.4 SSW 6 9 3 5 1025.8 - 0.0
20/01:30am 11.9 10.5 9.6 86 1.2 SSW 7 9 4 5 1025.9 - 0.0
20/01:00am 12.1 10.4 10.0 87 1.1 SSW 9 11 5 6 1026.0 - 0.0
20/12:30am 12.9 10.7 10.8 87 1.1 SSW 13 17 7 9 1026.0 - 0.0
20/12:00am 13.2 10.7 10.9 86 1.2 SSW 15 19 8 10 1025.9 1025.8 0.0
 
Date/Time
CDT
Tmp

°C
App
Tmp
°C
Dew
Point
°C
Rel
Hum
%
Delta-T

°C
Wind Press
QNH
hPa
Press
MSL
hPa
Rain
since
9 am
mm
Dir
 
Spd
km/h
Gust
km/h
Spd
kts
Gust
kts
19/11:30pm 13.4 10.9 10.9 85 1.3 SW 15 17 8 9 1025.7 - 0.0
19/11:00pm 13.5 11.0 11.0 85 1.3 SSW 15 19 8 10 1025.7 - 0.0
19/10:30pm 13.8 11.4 11.3 85 1.3 SSW 15 20 8 11 1025.5 - 0.0
19/10:00pm 14.2 11.0 11.4 83 1.5 SSW 19 24 10 13 1025.6 - 0.0
19/09:30pm 14.3 11.2 11.6 84 1.4 SSW 19 26 10 14 1025.4 - 0.0
19/09:00pm 13.7 10.9 11.2 85 1.3 SW 17 20 9 11 1025.3 1025.2 0.0
19/08:30pm 13.6 10.6 10.8 83 1.5 SW 17 20 9 11 1025.0 - 0.0

Latest Capital City Observations: Canberra | Sydney | Melbourne | Brisbane | Adelaide | Perth | Hobart | Darwin

Other Formats:

Comma delimited format used in spreadsheet applications
http://www.bom.gov.au/fwo/IDS60901/IDS60901.94814.axf

JavaScript Object Notation format (JSON) in row-major order
http://www.bom.gov.au/fwo/IDS60901/IDS60901.94814.json